sensor_id;sensor_type;location;lat;lon;timestamp;pressure;altitude;pressure_sealevel;temperature;humidity
28588;BME280;15787;49.662;10.162;2023-11-21T00:01:05;98507.47;;;8.58;100.00
28588;BME280;15787;49.662;10.162;2023-11-21T00:03:40;98507.00;;;8.60;100.00
28588;BME280;15787;49.662;10.162;2023-11-21T00:06:14;98505.75;;;8.64;100.00
28588;BME280;15787;49.662;10.162;2023-11-21T00:08:47;98500.53;;;8.66;100.00
28588;BME280;15787;49.662;10.162;2023-11-21T00:11:20;98501.94;;;8.74;100.00
28588;BME280;15787;49.662;10.162;2023-11-21T00:13:53;98491.22;;;8.73;100.00
28588;BME280;15787;49.662;10.162;2023-11-21T00:16:26;98496.69;;;8.60;100.00
28588;BME280;15787;49.662;10.162;2023-11-21T00:18:59;98489.97;;;8.58;100.00
28588;BME280;15787;49.662;10.162;2023-11-21T00:21:33;98487.03;;;8.65;100.00
28588;BME280;15787;49.662;10.162;2023-11-21T00:24:06;98480.03;;;8.57;100.00
28588;BME280;15787;49.662;10.162;2023-11-21T00:26:39;98487.06;;;8.81;100.00
28588;BME280;15787;49.662;10.162;2023-11-21T00:29:13;98484.88;;;8.72;100.00
28588;BME280;15787;49.662;10.162;2023-11-21T00:31:46;98483.72;;;8.70;100.00
28588;BME280;15787;49.662;10.162;2023-11-21T00:34:18;98479.47;;;8.65;100.00
28588;BME280;15787;49.662;10.162;2023-11-21T00:36:53;98480.59;;;8.68;100.00
28588;BME280;15787;49.662;10.162;2023-11-21T00:39:26;98483.97;;;8.59;100.00
28588;BME280;15787;49.662;10.162;2023-11-21T00:41:58;98485.38;;;8.51;100.00
28588;BME280;15787;49.662;10.162;2023-11-21T00:44:31;98481.28;;;8.56;100.00
28588;BME280;15787;49.662;10.162;2023-11-21T00:47:07;98484.09;;;8.72;100.00
28588;BME280;15787;49.662;10.162;2023-11-21T00:49:41;98482.13;;;8.53;100.00
28588;BME280;15787;49.662;10.162;2023-11-21T00:52:15;98487.75;;;8.33;100.00
28588;BME280;15787;49.662;10.162;2023-11-21T00:54:49;98490.19;;;8.47;100.00
28588;BME280;15787;49.662;10.162;2023-11-21T00:57:22;98489.84;;;8.45;100.00
28588;BME280;15787;49.662;10.162;2023-11-21T00:59:55;98491.69;;;8.52;100.00
28588;BME280;15787;49.662;10.162;2023-11-21T01:02:28;98485.88;;;8.62;100.00
28588;BME280;15787;49.662;10.162;2023-11-21T01:05:01;98488.25;;;8.64;100.00
28588;BME280;15787;49.662;10.162;2023-11-21T01:07:35;98486.63;;;8.66;100.00
28588;BME280;15787;49.662;10.162;2023-11-21T01:10:09;98487.25;;;8.74;100.00
28588;BME280;15787;49.662;10.162;2023-11-21T01:12:42;98497.84;;;8.79;100.00
28588;BME280;15787;49.662;10.162;2023-11-21T01:15:14;98497.75;;;8.66;100.00
28588;BME280;15787;49.662;10.162;2023-11-21T01:17:47;98496.81;;;8.89;100.00
28588;BME280;15787;49.662;10.162;2023-11-21T01:20:20;98498.66;;;8.60;100.00
28588;BME280;15787;49.662;10.162;2023-11-21T01:22:55;98496.22;;;8.81;100.00
28588;BME280;15787;49.662;10.162;2023-11-21T01:25:27;98493.59;;;8.90;100.00
28588;BME280;15787;49.662;10.162;2023-11-21T01:28:01;98495.81;;;8.63;100.00
28588;BME280;15787;49.662;10.162;2023-11-21T01:30:35;98500.66;;;8.59;100.00
28588;BME280;15787;49.662;10.162;2023-11-21T01:33:09;98500.88;;;8.68;100.00
28588;BME280;15787;49.662;10.162;2023-11-21T01:35:42;98498.88;;;8.69;100.00
28588;BME280;15787;49.662;10.162;2023-11-21T01:38:16;98502.19;;;8.64;100.00
28588;BME280;15787;49.662;10.162;2023-11-21T01:40:49;98504.16;;;8.63;100.00
28588;BME280;15787;49.662;10.162;2023-11-21T01:43:22;98503.31;;;8.66;100.00
28588;BME280;15787;49.662;10.162;2023-11-21T01:45:55;98499.78;;;8.82;100.00
28588;BME280;15787;49.662;10.162;2023-11-21T01:48:28;98503.41;;;8.79;100.00
28588;BME280;15787;49.662;10.162;2023-11-21T01:51:02;98505.50;;;8.75;100.00
28588;BME280;15787;49.662;10.162;2023-11-21T01:53:36;98516.59;;;8.95;100.00
28588;BME280;15787;49.662;10.162;2023-11-21T01:56:09;98498.53;;;8.83;100.00
28588;BME280;15787;49.662;10.162;2023-11-21T01:58:43;98507.69;;;8.83;100.00
28588;BME280;15787;49.662;10.162;2023-11-21T02:01:18;98511.50;;;8.73;100.00
28588;BME280;15787;49.662;10.162;2023-11-21T02:03:51;98509.78;;;8.79;100.00
28588;BME280;15787;49.662;10.162;2023-11-21T02:06:24;98511.38;;;8.97;100.00
28588;BME280;15787;49.662;10.162;2023-11-21T02:08:58;98509.38;;;8.97;100.00
28588;BME280;15787;49.662;10.162;2023-11-21T02:11:31;98512.50;;;8.99;100.00
28588;BME280;15787;49.662;10.162;2023-11-21T02:14:06;98511.44;;;8.93;100.00
28588;BME280;15787;49.662;10.162;2023-11-21T02:16:41;98509.78;;;8.96;100.00
28588;BME280;15787;49.662;10.162;2023-11-21T02:19:20;98509.97;;;8.88;100.00
28588;BME280;15787;49.662;10.162;2023-11-21T02:21:56;98512.22;;;8.94;100.00
28588;BME280;15787;49.662;10.162;2023-11-21T02:24:32;98515.34;;;8.79;100.00
28588;BME280;15787;49.662;10.162;2023-11-21T02:27:05;98518.59;;;8.94;100.00
28588;BME280;15787;49.662;10.162;2023-11-21T02:29:38;98508.28;;;8.75;100.00
28588;BME280;15787;49.662;10.162;2023-11-21T02:32:11;98514.66;;;8.92;100.00
28588;BME280;15787;49.662;10.162;2023-11-21T02:34:44;98505.34;;;8.46;100.00
28588;BME280;15787;49.662;10.162;2023-11-21T02:37:17;98510.00;;;8.69;100.00
28588;BME280;15787;49.662;10.162;2023-11-21T02:39:51;98501.44;;;8.79;100.00
28588;BME280;15787;49.662;10.162;2023-11-21T02:42:24;98504.44;;;8.69;100.00
28588;BME280;15787;49.662;10.162;2023-11-21T02:44:58;98510.75;;;8.89;100.00
28588;BME280;15787;49.662;10.162;2023-11-21T02:47:30;98508.75;;;8.89;100.00
28588;BME280;15787;49.662;10.162;2023-11-21T02:50:04;98509.44;;;8.94;100.00
28588;BME280;15787;49.662;10.162;2023-11-21T02:52:38;98508.66;;;8.57;100.00
28588;BME280;15787;49.662;10.162;2023-11-21T02:55:13;98513.50;;;8.73;100.00
28588;BME280;15787;49.662;10.162;2023-11-21T02:57:46;98507.88;;;8.57;100.00
28588;BME280;15787;49.662;10.162;2023-11-21T03:00:19;98511.31;;;8.64;100.00
28588;BME280;15787;49.662;10.162;2023-11-21T03:02:56;98506.91;;;8.47;100.00
28588;BME280;15787;49.662;10.162;2023-11-21T03:05:30;98503.88;;;8.58;100.00
28588;BME280;15787;49.662;10.162;2023-11-21T03:08:03;98502.06;;;8.67;100.00
28588;BME280;15787;49.662;10.162;2023-11-21T03:10:38;98511.66;;;8.66;100.00
28588;BME280;15787;49.662;10.162;2023-11-21T03:13:11;98507.50;;;8.74;100.00
28588;BME280;15787;49.662;10.162;2023-11-21T03:15:44;98503.31;;;8.47;100.00
28588;BME280;15787;49.662;10.162;2023-11-21T03:18:16;98503.81;;;8.42;100.00
28588;BME280;15787;49.662;10.162;2023-11-21T03:20:52;98500.00;;;8.71;100.00
28588;BME280;15787;49.662;10.162;2023-11-21T03:23:25;98501.88;;;8.94;100.00
28588;BME280;15787;49.662;10.162;2023-11-21T03:25:59;98502.22;;;8.96;100.00
28588;BME280;15787;49.662;10.162;2023-11-21T03:28:33;98500.66;;;8.95;100.00
28588;BME280;15787;49.662;10.162;2023-11-21T03:31:07;98518.47;;;8.98;100.00
28588;BME280;15787;49.662;10.162;2023-11-21T03:33:41;98510.06;;;9.01;100.00
28588;BME280;15787;49.662;10.162;2023-11-21T03:36:13;98517.53;;;8.88;100.00
28588;BME280;15787;49.662;10.162;2023-11-21T03:38:48;98519.19;;;9.02;100.00
28588;BME280;15787;49.662;10.162;2023-11-21T03:41:22;98517.00;;;8.93;100.00
28588;BME280;15787;49.662;10.162;2023-11-21T03:43:55;98521.53;;;9.03;100.00
28588;BME280;15787;49.662;10.162;2023-11-21T03:46:28;98518.69;;;9.07;100.00
28588;BME280;15787;49.662;10.162;2023-11-21T03:49:01;98523.63;;;8.99;100.00
28588;BME280;15787;49.662;10.162;2023-11-21T03:51:34;98512.16;;;8.97;100.00
28588;BME280;15787;49.662;10.162;2023-11-21T03:54:08;98518.41;;;9.01;100.00
28588;BME280;15787;49.662;10.162;2023-11-21T03:56:45;98516.69;;;9.07;100.00
28588;BME280;15787;49.662;10.162;2023-11-21T03:59:19;98519.00;;;8.93;100.00
28588;BME280;15787;49.662;10.162;2023-11-21T04:01:55;98514.66;;;9.08;100.00
28588;BME280;15787;49.662;10.162;2023-11-21T04:04:28;98521.66;;;9.00;100.00
28588;BME280;15787;49.662;10.162;2023-11-21T04:07:01;98523.03;;;9.08;100.00
28588;BME280;15787;49.662;10.162;2023-11-21T04:09:34;98523.41;;;9.10;100.00
28588;BME280;15787;49.662;10.162;2023-11-21T04:12:09;98522.25;;;9.07;100.00
28588;BME280;15787;49.662;10.162;2023-11-21T04:14:42;98526.16;;;8.94;100.00
28588;BME280;15787;49.662;10.162;2023-11-21T04:17:18;98534.00;;;8.99;100.00
28588;BME280;15787;49.662;10.162;2023-11-21T04:19:51;98531.03;;;8.89;100.00
28588;BME280;15787;49.662;10.162;2023-11-21T04:22:23;98531.03;;;8.89;100.00
28588;BME280;15787;49.662;10.162;2023-11-21T04:24:56;98532.16;;;8.92;100.00
28588;BME280;15787;49.662;10.162;2023-11-21T04:27:30;98531.16;;;8.82;100.00
28588;BME280;15787;49.662;10.162;2023-11-21T04:30:05;98537.91;;;8.65;100.00
28588;BME280;15787;49.662;10.162;2023-11-21T04:32:38;98535.06;;;8.49;100.00
28588;BME280;15787;49.662;10.162;2023-11-21T04:35:12;98546.88;;;8.73;100.00
28588;BME280;15787;49.662;10.162;2023-11-21T04:37:44;98540.69;;;8.65;100.00
28588;BME280;15787;49.662;10.162;2023-11-21T04:40:17;98548.38;;;8.77;100.00
28588;BME280;15787;49.662;10.162;2023-11-21T04:42:54;98557.41;;;8.65;100.00
28588;BME280;15787;49.662;10.162;2023-11-21T04:45:30;98557.50;;;8.78;100.00
28588;BME280;15787;49.662;10.162;2023-11-21T04:48:04;98561.09;;;8.39;100.00
28588;BME280;15787;49.662;10.162;2023-11-21T04:50:38;98557.75;;;8.67;100.00
28588;BME280;15787;49.662;10.162;2023-11-21T04:53:11;98559.25;;;8.72;100.00
28588;BME280;15787;49.662;10.162;2023-11-21T04:55:46;98557.56;;;8.58;100.00
28588;BME280;15787;49.662;10.162;2023-11-21T04:58:21;98562.97;;;8.46;100.00
28588;BME280;15787;49.662;10.162;2023-11-21T05:00:54;98554.34;;;8.40;100.00
28588;BME280;15787;49.662;10.162;2023-11-21T05:03:27;98553.41;;;8.47;100.00
28588;BME280;15787;49.662;10.162;2023-11-21T05:06:01;98550.75;;;8.59;100.00
28588;BME280;15787;49.662;10.162;2023-11-21T05:08:36;98555.25;;;8.73;100.00
28588;BME280;15787;49.662;10.162;2023-11-21T05:11:09;98554.72;;;8.78;100.00
28588;BME280;15787;49.662;10.162;2023-11-21T05:13:44;98562.69;;;8.60;100.00
28588;BME280;15787;49.662;10.162;2023-11-21T05:16:17;98551.00;;;8.49;100.00
28588;BME280;15787;49.662;10.162;2023-11-21T05:18:50;98554.44;;;8.72;100.00
28588;BME280;15787;49.662;10.162;2023-11-21T05:21:23;98559.25;;;8.72;100.00
28588;BME280;15787;49.662;10.162;2023-11-21T05:23:56;98563.41;;;8.64;100.00
28588;BME280;15787;49.662;10.162;2023-11-21T05:26:29;98562.75;;;8.56;100.00
28588;BME280;15787;49.662;10.162;2023-11-21T05:29:03;98570.47;;;8.68;100.00
28588;BME280;15787;49.662;10.162;2023-11-21T05:31:37;98565.88;;;8.78;100.00
28588;BME280;15787;49.662;10.162;2023-11-21T05:34:09;98578.22;;;8.77;100.00
28588;BME280;15787;49.662;10.162;2023-11-21T05:36:43;98578.13;;;8.80;100.00
28588;BME280;15787;49.662;10.162;2023-11-21T05:39:17;98577.16;;;8.71;100.00
28588;BME280;15787;49.662;10.162;2023-11-21T05:41:51;98584.81;;;8.67;100.00
28588;BME280;15787;49.662;10.162;2023-11-21T05:44:25;98580.88;;;8.64;100.00
28588;BME280;15787;49.662;10.162;2023-11-21T05:46:58;98581.97;;;8.51;100.00
28588;BME280;15787;49.662;10.162;2023-11-21T05:49:31;98588.31;;;8.51;100.00
28588;BME280;15787;49.662;10.162;2023-11-21T05:52:04;98592.47;;;8.20;100.00
28588;BME280;15787;49.662;10.162;2023-11-21T05:54:37;98584.75;;;8.31;100.00
28588;BME280;15787;49.662;10.162;2023-11-21T05:57:10;98585.59;;;8.28;100.00
28588;BME280;15787;49.662;10.162;2023-11-21T05:59:44;98586.50;;;8.61;100.00
28588;BME280;15787;49.662;10.162;2023-11-21T06:02:19;98583.94;;;8.50;100.00
28588;BME280;15787;49.662;10.162;2023-11-21T06:04:52;98589.72;;;8.59;100.00
28588;BME280;15787;49.662;10.162;2023-11-21T06:07:25;98596.34;;;8.65;100.00
28588;BME280;15787;49.662;10.162;2023-11-21T06:09:58;98605.00;;;8.71;100.00
28588;BME280;15787;49.662;10.162;2023-11-21T06:12:31;98608.50;;;8.55;100.00
28588;BME280;15787;49.662;10.162;2023-11-21T06:15:10;98614.41;;;8.57;100.00
28588;BME280;15787;49.662;10.162;2023-11-21T06:17:45;98612.34;;;8.61;100.00
28588;BME280;15787;49.662;10.162;2023-11-21T06:20:21;98616.53;;;8.50;100.00
28588;BME280;15787;49.662;10.162;2023-11-21T06:22:55;98623.19;;;8.36;100.00
28588;BME280;15787;49.662;10.162;2023-11-21T06:25:28;98624.34;;;8.39;100.00
28588;BME280;15787;49.662;10.162;2023-11-21T06:28:01;98630.81;;;8.32;100.00
28588;BME280;15787;49.662;10.162;2023-11-21T06:30:35;98633.75;;;8.21;100.00
28588;BME280;15787;49.662;10.162;2023-11-21T06:33:08;98635.22;;;8.30;100.00
28588;BME280;15787;49.662;10.162;2023-11-21T06:35:41;98636.22;;;8.39;100.00
28588;BME280;15787;49.662;10.162;2023-11-21T06:38:14;98635.06;;;8.37;100.00
28588;BME280;15787;49.662;10.162;2023-11-21T06:40:47;98637.84;;;8.37;100.00
28588;BME280;15787;49.662;10.162;2023-11-21T06:43:20;98639.66;;;8.47;100.00
28588;BME280;15787;49.662;10.162;2023-11-21T06:45:55;98649.22;;;8.46;100.00
28588;BME280;15787;49.662;10.162;2023-11-21T06:48:27;98648.50;;;8.42;100.00
28588;BME280;15787;49.662;10.162;2023-11-21T06:51:01;98647.00;;;8.37;100.00
28588;BME280;15787;49.662;10.162;2023-11-21T06:53:36;98659.13;;;8.47;100.00
28588;BME280;15787;49.662;10.162;2023-11-21T06:56:15;98661.38;;;8.55;100.00
28588;BME280;15787;49.662;10.162;2023-11-21T06:58:48;98661.31;;;8.59;100.00
28588;BME280;15787;49.662;10.162;2023-11-21T07:01:27;98663.69;;;8.57;100.00
28588;BME280;15787;49.662;10.162;2023-11-21T07:04:00;98669.28;;;8.57;100.00
28588;BME280;15787;49.662;10.162;2023-11-21T07:06:33;98669.22;;;8.60;100.00
28588;BME280;15787;49.662;10.162;2023-11-21T07:09:06;98677.03;;;8.22;100.00
28588;BME280;15787;49.662;10.162;2023-11-21T07:11:39;98675.06;;;8.23;100.00
28588;BME280;15787;49.662;10.162;2023-11-21T07:14:14;98675.91;;;8.43;100.00
28588;BME280;15787;49.662;10.162;2023-11-21T07:16:50;98674.63;;;8.48;100.00
28588;BME280;15787;49.662;10.162;2023-11-21T07:19:24;98680.16;;;8.28;100.00
28588;BME280;15787;49.662;10.162;2023-11-21T07:21:57;98675.41;;;8.25;100.00
28588;BME280;15787;49.662;10.162;2023-11-21T07:24:30;98674.94;;;8.30;100.00
28588;BME280;15787;49.662;10.162;2023-11-21T07:27:03;98682.09;;;8.31;100.00
28588;BME280;15787;49.662;10.162;2023-11-21T07:29:36;98689.63;;;8.07;100.00
28588;BME280;15787;49.662;10.162;2023-11-21T07:32:12;98686.66;;;8.18;100.00
28588;BME280;15787;49.662;10.162;2023-11-21T07:34:46;98693.44;;;8.17;100.00
28588;BME280;15787;49.662;10.162;2023-11-21T07:37:19;98684.88;;;8.31;100.00
28588;BME280;15787;49.662;10.162;2023-11-21T07:39:52;98693.78;;;8.19;100.00
28588;BME280;15787;49.662;10.162;2023-11-21T07:42:28;98688.97;;;8.46;100.00
28588;BME280;15787;49.662;10.162;2023-11-21T07:45:01;98696.88;;;8.24;100.00
28588;BME280;15787;49.662;10.162;2023-11-21T07:47:35;98687.56;;;8.77;100.00
28588;BME280;15787;49.662;10.162;2023-11-21T07:50:11;98695.22;;;8.73;100.00
28588;BME280;15787;49.662;10.162;2023-11-21T07:52:45;98702.00;;;8.49;100.00
28588;BME280;15787;49.662;10.162;2023-11-21T07:55:18;98703.88;;;8.36;100.00
28588;BME280;15787;49.662;10.162;2023-11-21T07:57:51;98705.19;;;8.51;100.00
28588;BME280;15787;49.662;10.162;2023-11-21T08:00:24;98703.09;;;8.55;100.00
28588;BME280;15787;49.662;10.162;2023-11-21T08:03:03;98700.84;;;8.70;100.00
28588;BME280;15787;49.662;10.162;2023-11-21T08:05:36;98709.31;;;8.63;100.00
28588;BME280;15787;49.662;10.162;2023-11-21T08:08:09;98713.53;;;9.10;100.00
28588;BME280;15787;49.662;10.162;2023-11-21T08:10:43;98725.13;;;9.09;100.00
28588;BME280;15787;49.662;10.162;2023-11-21T08:13:17;98719.13;;;8.71;100.00
28588;BME280;15787;49.662;10.162;2023-11-21T08:15:54;98731.19;;;8.84;100.00
28588;BME280;15787;49.662;10.162;2023-11-21T08:18:28;98726.81;;;8.83;100.00
28588;BME280;15787;49.662;10.162;2023-11-21T08:21:02;98729.44;;;8.70;100.00
28588;BME280;15787;49.662;10.162;2023-11-21T08:23:36;98735.53;;;8.85;100.00
28588;BME280;15787;49.662;10.162;2023-11-21T08:26:09;98741.63;;;9.00;100.00
28588;BME280;15787;49.662;10.162;2023-11-21T08:28:42;98739.19;;;8.82;100.00
28588;BME280;15787;49.662;10.162;2023-11-21T08:31:15;98733.72;;;8.75;100.00
28588;BME280;15787;49.662;10.162;2023-11-21T08:33:49;98740.66;;;8.67;100.00
28588;BME280;15787;49.662;10.162;2023-11-21T08:36:22;98739.75;;;8.50;100.00
28588;BME280;15787;49.662;10.162;2023-11-21T08:38:55;98738.00;;;8.60;100.00
28588;BME280;15787;49.662;10.162;2023-11-21T08:41:28;98732.72;;;8.65;100.00
28588;BME280;15787;49.662;10.162;2023-11-21T08:44:02;98743.38;;;8.70;100.00
28588;BME280;15787;49.662;10.162;2023-11-21T08:46:38;98747.09;;;8.64;100.00
28588;BME280;15787;49.662;10.162;2023-11-21T08:49:15;98739.94;;;8.63;100.00
28588;BME280;15787;49.662;10.162;2023-11-21T08:51:48;98733.56;;;8.62;100.00
28588;BME280;15787;49.662;10.162;2023-11-21T08:54:21;98734.13;;;8.77;100.00
28588;BME280;15787;49.662;10.162;2023-11-21T08:56:54;98736.16;;;8.73;100.00
28588;BME280;15787;49.662;10.162;2023-11-21T08:59:29;98741.41;;;8.90;100.00
28588;BME280;15787;49.662;10.162;2023-11-21T09:02:02;98739.25;;;8.98;100.00
28588;BME280;15787;49.662;10.162;2023-11-21T09:04:37;98751.53;;;9.01;100.00
28588;BME280;15787;49.662;10.162;2023-11-21T09:07:12;98751.78;;;9.10;100.00
28588;BME280;15787;49.662;10.162;2023-11-21T09:09:45;98751.97;;;9.19;100.00
28588;BME280;15787;49.662;10.162;2023-11-21T09:12:18;98754.75;;;9.19;100.00
28588;BME280;15787;49.662;10.162;2023-11-21T09:14:51;98762.75;;;9.17;100.00
28588;BME280;15787;49.662;10.162;2023-11-21T09:17:24;98760.75;;;9.37;100.00
28588;BME280;15787;49.662;10.162;2023-11-21T09:19:58;98763.47;;;9.40;100.00
28588;BME280;15787;49.662;10.162;2023-11-21T09:22:32;98764.31;;;9.57;100.00
28588;BME280;15787;49.662;10.162;2023-11-21T09:25:05;98775.97;;;9.32;100.00
28588;BME280;15787;49.662;10.162;2023-11-21T09:27:40;98769.25;;;9.49;100.00
28588;BME280;15787;49.662;10.162;2023-11-21T09:30:13;98775.63;;;9.50;100.00
28588;BME280;15787;49.662;10.162;2023-11-21T09:32:47;98784.88;;;9.43;100.00
28588;BME280;15787;49.662;10.162;2023-11-21T09:35:21;98790.53;;;9.60;100.00
28588;BME280;15787;49.662;10.162;2023-11-21T09:37:54;98797.69;;;9.41;100.00
28588;BME280;15787;49.662;10.162;2023-11-21T09:40:27;98798.91;;;9.60;100.00
28588;BME280;15787;49.662;10.162;2023-11-21T09:43:06;98794.22;;;9.73;100.00
28588;BME280;15787;49.662;10.162;2023-11-21T09:45:40;98800.50;;;9.77;100.00
28588;BME280;15787;49.662;10.162;2023-11-21T09:48:17;98816.50;;;9.92;100.00
28588;BME280;15787;49.662;10.162;2023-11-21T09:50:54;98802.53;;;9.76;100.00
28588;BME280;15787;49.662;10.162;2023-11-21T09:53:27;98821.03;;;10.22;100.00
28588;BME280;15787;49.662;10.162;2023-11-21T09:56:04;98810.91;;;9.92;100.00
28588;BME280;15787;49.662;10.162;2023-11-21T09:58:37;98825.94;;;9.98;100.00
28588;BME280;15787;49.662;10.162;2023-11-21T10:01:11;98822.91;;;10.09;100.00
28588;BME280;15787;49.662;10.162;2023-11-21T10:03:46;98830.84;;;10.10;100.00
28588;BME280;15787;49.662;10.162;2023-11-21T10:06:21;98832.38;;;9.95;100.00
28588;BME280;15787;49.662;10.162;2023-11-21T10:08:55;98829.59;;;9.95;100.00
28588;BME280;15787;49.662;10.162;2023-11-21T10:11:28;98838.22;;;10.01;100.00
28588;BME280;15787;49.662;10.162;2023-11-21T10:14:02;98836.97;;;9.86;100.00
28588;BME280;15787;49.662;10.162;2023-11-21T10:16:38;98846.78;;;10.10;100.00
28588;BME280;15787;49.662;10.162;2023-11-21T10:19:11;98841.44;;;9.99;100.00
28588;BME280;15787;49.662;10.162;2023-11-21T10:21:46;98848.59;;;10.00;100.00
28588;BME280;15787;49.662;10.162;2023-11-21T10:24:19;98842.00;;;10.10;100.00
28588;BME280;15787;49.662;10.162;2023-11-21T10:26:52;98836.41;;;10.10;100.00
28588;BME280;15787;49.662;10.162;2023-11-21T10:29:29;98838.94;;;10.05;100.00
28588;BME280;15787;49.662;10.162;2023-11-21T10:32:02;98840.84;;;10.08;100.00
28588;BME280;15787;49.662;10.162;2023-11-21T10:34:35;98842.06;;;10.07;100.00
28588;BME280;15787;49.662;10.162;2023-11-21T10:37:12;98846.34;;;10.31;100.00
28588;BME280;15787;49.662;10.162;2023-11-21T10:39:45;98837.75;;;10.22;100.00
28588;BME280;15787;49.662;10.162;2023-11-21T10:42:18;98842.78;;;10.47;100.00
28588;BME280;15787;49.662;10.162;2023-11-21T10:44:53;98843.19;;;10.45;100.00
28588;BME280;15787;49.662;10.162;2023-11-21T10:47:26;98842.25;;;10.36;100.00
28588;BME280;15787;49.662;10.162;2023-11-21T10:50:00;98840.94;;;10.40;100.00
28588;BME280;15787;49.662;10.162;2023-11-21T10:52:35;98837.88;;;10.51;100.00
28588;BME280;15787;49.662;10.162;2023-11-21T10:55:16;98848.00;;;10.29;100.00
28588;BME280;15787;49.662;10.162;2023-11-21T10:57:54;98848.25;;;10.34;100.00
28588;BME280;15787;49.662;10.162;2023-11-21T11:00:29;98844.69;;;10.34;100.00
28588;BME280;15787;49.662;10.162;2023-11-21T11:03:02;98849.81;;;10.35;100.00
28588;BME280;15787;49.662;10.162;2023-11-21T11:05:37;98849.38;;;10.21;100.00
28588;BME280;15787;49.662;10.162;2023-11-21T11:08:12;98850.25;;;10.34;100.00
28588;BME280;15787;49.662;10.162;2023-11-21T11:10:50;98852.47;;;10.42;100.00
28588;BME280;15787;49.662;10.162;2023-11-21T11:13:24;98860.03;;;10.58;100.00
28588;BME280;15787;49.662;10.162;2023-11-21T11:15:59;98854.88;;;10.89;100.00
28588;BME280;15787;49.662;10.162;2023-11-21T11:18:33;98858.28;;;10.48;100.00
28588;BME280;15787;49.662;10.162;2023-11-21T11:21:23;98860.41;;;10.60;100.00
28588;BME280;15787;49.662;10.162;2023-11-21T11:24:17;98867.13;;;10.62;100.00
28588;BME280;15787;49.662;10.162;2023-11-21T11:26:57;98861.09;;;10.64;100.00
28588;BME280;15787;49.662;10.162;2023-11-21T11:29:37;98858.50;;;10.57;100.00
28588;BME280;15787;49.662;10.162;2023-11-21T11:32:19;98868.78;;;10.60;100.00
28588;BME280;15787;49.662;10.162;2023-11-21T11:34:59;98865.28;;;10.56;100.00
28588;BME280;15787;49.662;10.162;2023-11-21T11:37:34;98865.47;;;10.65;100.00
28588;BME280;15787;49.662;10.162;2023-11-21T11:40:11;98861.91;;;10.64;100.00
28588;BME280;15787;49.662;10.162;2023-11-21T11:42:56;98872.34;;;10.76;100.00
28588;BME280;15787;49.662;10.162;2023-11-21T11:45:32;98872.19;;;10.84;100.00
28588;BME280;15787;49.662;10.162;2023-11-21T11:48:07;98876.72;;;10.77;100.00
28588;BME280;15787;49.662;10.162;2023-11-21T11:50:42;98876.88;;;10.70;100.00
28588;BME280;15787;49.662;10.162;2023-11-21T11:53:39;98879.41;;;10.81;100.00
28588;BME280;15787;49.662;10.162;2023-11-21T11:56:25;98888.66;;;10.78;100.00
28588;BME280;15787;49.662;10.162;2023-11-21T11:59:00;98881.34;;;10.84;100.00
28588;BME280;15787;49.662;10.162;2023-11-21T12:01:34;98880.81;;;11.05;100.00
28588;BME280;15787;49.662;10.162;2023-11-21T12:04:24;98883.00;;;10.82;100.00
28588;BME280;15787;49.662;10.162;2023-11-21T12:07:04;98883.69;;;10.86;100.00
28588;BME280;15787;49.662;10.162;2023-11-21T12:09:39;98883.25;;;10.71;100.00
28588;BME280;15787;49.662;10.162;2023-11-21T12:12:13;98887.19;;;10.73;100.00
28588;BME280;15787;49.662;10.162;2023-11-21T12:14:49;98893.56;;;10.90;100.00
28588;BME280;15787;49.662;10.162;2023-11-21T12:17:23;98890.94;;;10.67;100.00
28588;BME280;15787;49.662;10.162;2023-11-21T12:20:02;98895.50;;;10.77;100.00
28588;BME280;15787;49.662;10.162;2023-11-21T12:22:36;98887.81;;;10.81;100.00
28588;BME280;15787;49.662;10.162;2023-11-21T12:25:10;98891.84;;;10.80;100.00
28588;BME280;15787;49.662;10.162;2023-11-21T12:27:50;98890.44;;;10.72;100.00
28588;BME280;15787;49.662;10.162;2023-11-21T12:30:24;98897.91;;;11.07;100.00
28588;BME280;15787;49.662;10.162;2023-11-21T12:33:00;98899.94;;;10.91;100.00
28588;BME280;15787;49.662;10.162;2023-11-21T12:35:34;98900.91;;;10.84;100.00
28588;BME280;15787;49.662;10.162;2023-11-21T12:38:07;98908.56;;;10.64;100.00
28588;BME280;15787;49.662;10.162;2023-11-21T12:40:42;98901.09;;;10.93;100.00
28588;BME280;15787;49.662;10.162;2023-11-21T12:43:18;98902.09;;;10.83;100.00
28588;BME280;15787;49.662;10.162;2023-11-21T12:46:04;98904.75;;;10.90;100.00
28588;BME280;15787;49.662;10.162;2023-11-21T12:48:38;98898.56;;;10.83;100.00
28588;BME280;15787;49.662;10.162;2023-11-21T12:51:14;98900.09;;;10.84;100.00
28588;BME280;15787;49.662;10.162;2023-11-21T12:53:47;98905.78;;;10.96;100.00
28588;BME280;15787;49.662;10.162;2023-11-21T12:56:21;98901.25;;;10.86;100.00
28588;BME280;15787;49.662;10.162;2023-11-21T12:58:57;98900.34;;;10.73;100.00
28588;BME280;15787;49.662;10.162;2023-11-21T13:01:31;98909.81;;;10.95;100.00
28588;BME280;15787;49.662;10.162;2023-11-21T13:04:07;98909.19;;;11.04;99.42
28588;BME280;15787;49.662;10.162;2023-11-21T13:06:42;98922.72;;;10.89;99.85
28588;BME280;15787;49.662;10.162;2023-11-21T13:09:15;98911.28;;;10.84;99.60
28588;BME280;15787;49.662;10.162;2023-11-21T13:11:59;98912.56;;;11.11;100.00
28588;BME280;15787;49.662;10.162;2023-11-21T13:14:36;98912.94;;;10.81;99.46
28588;BME280;15787;49.662;10.162;2023-11-21T13:17:09;98919.13;;;10.89;98.98
28588;BME280;15787;49.662;10.162;2023-11-21T13:19:42;98921.41;;;10.94;98.81
28588;BME280;15787;49.662;10.162;2023-11-21T13:22:15;98920.81;;;11.02;98.08
28588;BME280;15787;49.662;10.162;2023-11-21T13:24:49;98924.81;;;10.85;98.56